createdAt,value
2022-09-02T00:04:43.281Z,100.00
2022-09-02T00:09:47.246Z,100.00
2022-09-02T00:14:50.036Z,100.00
2022-09-02T00:19:56.217Z,100.00
2022-09-02T00:24:59.490Z,100.00
2022-09-02T00:30:02.424Z,100.00
2022-09-02T00:35:05.727Z,100.00
2022-09-02T00:40:08.714Z,100.00
2022-09-02T00:45:11.942Z,100.00
2022-09-02T00:50:14.749Z,100.00
2022-09-02T00:55:17.637Z,100.00
2022-09-02T01:00:20.510Z,100.00
2022-09-02T01:05:23.498Z,100.00
2022-09-02T01:10:26.325Z,100.00
2022-09-02T01:15:30.354Z,100.00
2022-09-02T01:20:33.173Z,100.00
2022-09-02T01:25:35.853Z,100.00
2022-09-02T01:30:38.583Z,100.00
2022-09-02T01:35:41.341Z,100.00
2022-09-02T01:40:44.178Z,100.00
2022-09-02T01:45:46.906Z,100.00
2022-09-02T01:50:49.797Z,100.00
2022-09-02T01:55:52.524Z,100.00
2022-09-02T02:00:55.386Z,100.00
2022-09-02T02:05:58.291Z,100.00
2022-09-02T02:11:01.973Z,100.00
2022-09-02T02:16:04.763Z,100.00
2022-09-02T02:21:07.608Z,100.00
2022-09-02T02:26:10.336Z,100.00
2022-09-02T02:31:13.116Z,100.00
2022-09-02T02:36:16.009Z,100.00
2022-09-02T02:41:18.857Z,100.00
2022-09-02T02:46:21.750Z,100.00
2022-09-02T02:51:24.602Z,100.00
2022-09-02T02:56:27.529Z,100.00
2022-09-02T03:01:30.535Z,100.00
2022-09-02T03:06:33.573Z,100.00
2022-09-02T03:11:36.505Z,100.00
2022-09-02T03:16:39.958Z,100.00
2022-09-02T03:21:42.706Z,100.00
2022-09-02T03:26:45.530Z,100.00
2022-09-02T03:31:48.360Z,100.00
2022-09-02T03:36:51.206Z,100.00
2022-09-02T03:41:54.061Z,100.00
2022-09-02T03:46:56.890Z,100.00
2022-09-02T03:51:59.758Z,100.00
2022-09-02T03:57:03.606Z,100.00
2022-09-02T04:02:07.350Z,100.00
2022-09-02T04:07:10.319Z,100.00
2022-09-02T04:12:13.230Z,100.00
2022-09-02T04:17:16.227Z,100.00
2022-09-02T04:22:19.017Z,100.00
2022-09-02T04:27:21.814Z,100.00
2022-09-02T04:32:26.542Z,100.00
2022-09-02T04:37:29.624Z,100.00
2022-09-02T04:42:32.366Z,100.00
2022-09-02T04:47:35.155Z,100.00
2022-09-02T04:52:37.971Z,100.00
2022-09-02T04:57:40.962Z,100.00
2022-09-02T05:02:44.223Z,100.00
2022-09-02T05:07:46.958Z,100.00
2022-09-02T05:12:49.840Z,100.00
2022-09-02T05:17:52.941Z,100.00
2022-09-02T05:22:55.706Z,100.00
2022-09-02T05:27:58.431Z,100.00
2022-09-02T05:33:01.182Z,100.00
2022-09-02T05:38:05.153Z,100.00
2022-09-02T05:43:07.880Z,100.00
2022-09-02T05:48:24.713Z,100.00
2022-09-02T05:53:27.901Z,100.00
2022-09-02T05:58:31.414Z,100.00
2022-09-02T06:03:35.679Z,100.00
2022-09-02T06:08:38.503Z,100.00
2022-09-02T06:13:41.286Z,100.00
2022-09-02T06:18:44.112Z,100.00
2022-09-02T06:23:46.958Z,100.00
2022-09-02T06:28:50.195Z,100.00
2022-09-02T06:33:54.094Z,100.00
2022-09-02T06:38:57.920Z,100.00
2022-09-02T06:44:01.111Z,100.00
2022-09-02T06:49:03.943Z,100.00
2022-09-02T06:54:06.965Z,100.00
2022-09-02T06:59:09.975Z,100.00
2022-09-02T07:04:31.320Z,100.00
2022-09-02T07:09:34.265Z,100.00
2022-09-02T07:14:37.264Z,100.00
2022-09-02T07:19:40.865Z,100.00
2022-09-02T07:24:44.780Z,100.00
2022-09-02T07:29:49.125Z,100.00
2022-09-02T07:34:55.263Z,100.00
2022-09-02T07:39:58.839Z,100.00
2022-09-02T07:45:01.958Z,100.00
2022-09-02T07:50:22.279Z,97.42
2022-09-02T07:55:25.961Z,97.14
2022-09-02T08:00:29.076Z,93.81
2022-09-02T08:05:31.976Z,90.38
2022-09-02T08:10:34.942Z,89.59
2022-09-02T08:15:37.946Z,87.17
2022-09-02T08:20:41.795Z,86.54
2022-09-02T08:25:46.018Z,80.03
2022-09-02T08:30:53.219Z,77.62
2022-09-02T08:35:56.665Z,73.77
2022-09-02T08:40:59.580Z,73.58
2022-09-02T08:46:05.353Z,68.01
2022-09-02T08:51:08.357Z,64.18
2022-09-02T08:56:11.235Z,62.68
2022-09-02T09:01:14.132Z,61.76
2022-09-02T09:06:17.022Z,59.99
2022-09-02T09:11:21.052Z,58.01
2022-09-02T09:16:23.884Z,55.47
2022-09-02T09:21:26.993Z,56.49
2022-09-02T09:26:30.857Z,55.56
2022-09-02T09:31:35.695Z,55.20
2022-09-02T09:36:38.633Z,54.46
2022-09-02T09:41:41.922Z,53.24
2022-09-02T09:46:44.727Z,53.28
2022-09-02T09:51:50.464Z,52.41
2022-09-02T09:56:53.532Z,52.28
2022-09-02T10:01:58.455Z,52.97
2022-09-02T10:07:01.395Z,51.91
2022-09-02T10:12:05.232Z,51.97
2022-09-02T10:17:08.166Z,50.96
2022-09-02T10:22:10.917Z,50.52
2022-09-02T10:27:13.731Z,50.02
2022-09-02T10:32:23.337Z,49.75
2022-09-02T10:37:27.125Z,49.08
2022-09-02T10:42:29.974Z,48.11
2022-09-02T10:47:32.972Z,47.06
2022-09-02T10:52:36.246Z,47.45
2022-09-02T10:57:39.027Z,48.96
2022-09-02T11:02:41.906Z,47.63
2022-09-02T11:07:44.996Z,47.55
2022-09-02T11:12:47.933Z,46.93
2022-09-02T11:17:52.702Z,47.04
2022-09-02T11:22:55.882Z,46.96
2022-09-02T11:27:58.756Z,46.35
2022-09-02T11:33:02.243Z,46.15
2022-09-02T11:38:05.455Z,46.06
2022-09-02T11:43:08.417Z,47.39
2022-09-02T11:48:11.308Z,47.09
2022-09-02T11:53:14.153Z,46.53
2022-09-02T11:58:17.536Z,45.65
2022-09-02T12:03:38.924Z,46.16
2022-09-02T12:08:43.769Z,46.74
2022-09-02T12:18:54.062Z,44.98
2022-09-02T12:23:56.964Z,44.84
2022-09-02T12:29:00.977Z,44.54
2022-09-02T12:34:06.789Z,44.54
2022-09-02T12:39:11.541Z,43.91
2022-09-02T12:44:15.377Z,44.81
2022-09-02T12:49:18.750Z,44.39
2022-09-02T12:54:25.241Z,43.49
2022-09-02T12:59:28.161Z,43.75
2022-09-02T13:04:32.127Z,43.84
2022-09-02T13:09:36.199Z,43.95
2022-09-02T13:14:39.468Z,44.04
2022-09-02T13:19:42.306Z,44.55
2022-09-02T13:24:46.281Z,44.57
2022-09-02T13:29:49.696Z,44.11
2022-09-02T13:34:52.806Z,44.19
2022-09-02T13:39:55.705Z,44.13
2022-09-02T13:44:58.522Z,44.31
2022-09-02T13:50:01.565Z,44.90
2022-09-02T13:55:08.675Z,44.74
2022-09-02T14:00:12.262Z,43.89
2022-09-02T14:05:15.183Z,43.60
2022-09-02T14:10:18.073Z,43.93
2022-09-02T14:15:20.832Z,44.13
2022-09-02T14:20:24.680Z,43.88
2022-09-02T14:25:27.826Z,44.16
2022-09-02T14:30:30.700Z,43.99
2022-09-02T14:35:34.096Z,44.30
2022-09-02T14:40:36.863Z,43.81
2022-09-02T14:45:40.728Z,44.08
2022-09-02T14:50:43.564Z,43.88
2022-09-02T14:55:46.416Z,44.03
2022-09-02T15:00:52.129Z,43.85
2022-09-02T15:05:55.006Z,43.58
2022-09-02T15:10:57.853Z,44.30
2022-09-02T15:16:00.793Z,44.19
2022-09-02T15:21:05.111Z,44.08
2022-09-02T15:26:08.281Z,44.27
2022-09-02T15:31:11.085Z,44.30
2022-09-02T15:36:13.871Z,44.26
2022-09-02T15:41:16.627Z,44.97
2022-09-02T15:46:19.437Z,44.93
2022-09-02T15:51:22.310Z,44.99
2022-09-02T15:56:25.057Z,45.42
2022-09-02T16:01:27.866Z,45.17
2022-09-02T16:06:30.594Z,45.71
2022-09-02T16:11:33.390Z,45.35
2022-09-02T16:16:36.821Z,46.12
2022-09-02T16:21:41.069Z,46.21
2022-09-02T16:26:43.986Z,47.21
2022-09-02T16:32:07.904Z,47.18
2022-09-02T16:37:14.836Z,47.43
2022-09-02T16:42:18.634Z,47.12
2022-09-02T16:47:23.266Z,47.55
2022-09-02T16:52:26.030Z,47.81
2022-09-02T16:57:29.650Z,48.03
2022-09-02T17:02:32.666Z,48.36
2022-09-02T17:07:35.505Z,48.99
2022-09-02T17:12:42.667Z,49.50
2022-09-02T17:17:45.849Z,50.04
2022-09-02T17:22:48.700Z,50.79
2022-09-02T17:27:51.423Z,51.35
2022-09-02T17:32:56.599Z,52.79
2022-09-02T17:37:59.574Z,54.26
2022-09-02T17:43:02.744Z,54.88
2022-09-02T17:48:45.183Z,55.69
2022-09-02T17:53:28.250Z,57.07
2022-09-02T17:58:32.558Z,58.10
2022-09-02T18:03:35.567Z,59.83
2022-09-02T18:08:38.793Z,61.53
2022-09-02T18:13:41.942Z,62.49
2022-09-02T18:18:44.704Z,64.11
2022-09-02T18:23:47.527Z,65.60
2022-09-02T18:28:50.262Z,66.43
2022-09-02T18:33:53.609Z,66.83
2022-09-02T18:38:56.348Z,70.10
2022-09-02T18:43:59.543Z,69.73
2022-09-02T18:49:02.618Z,70.88
2022-09-02T18:54:05.363Z,72.10
2022-09-02T18:59:10.828Z,73.28
2022-09-02T19:04:13.613Z,72.40
2022-09-02T19:09:17.220Z,72.52
2022-09-02T19:14:20.756Z,74.21
2022-09-02T19:19:23.552Z,75.11
2022-09-02T19:24:26.323Z,77.20
2022-09-02T19:29:29.079Z,77.75
2022-09-02T19:34:31.934Z,77.66
2022-09-02T19:39:34.968Z,78.41
2022-09-02T19:44:38.929Z,79.48
2022-09-02T19:49:42.768Z,79.68
2022-09-02T19:54:46.543Z,79.06
2022-09-02T19:59:49.736Z,79.49
2022-09-02T20:04:53.236Z,79.90
2022-09-02T20:09:56.035Z,80.33
2022-09-02T20:14:58.846Z,81.31
2022-09-02T20:20:02.145Z,84.13
2022-09-02T20:25:04.873Z,84.15
2022-09-02T20:30:07.787Z,82.28
2022-09-02T20:35:11.500Z,83.12
2022-09-02T20:40:14.543Z,83.34
2022-09-02T20:45:17.448Z,83.46
2022-09-02T20:50:20.350Z,83.37
2022-09-02T20:55:23.864Z,84.57
2022-09-02T21:00:26.650Z,84.99
2022-09-02T21:05:29.416Z,84.44
2022-09-02T21:10:32.225Z,85.03
2022-09-02T21:15:35.428Z,86.48
2022-09-02T21:20:41.245Z,88.07
2022-09-02T21:25:44.084Z,89.15
2022-09-02T21:30:46.845Z,89.76
2022-09-02T21:35:50.081Z,89.31
2022-09-02T21:40:52.831Z,90.37
2022-09-02T21:45:55.585Z,91.50
2022-09-02T21:50:59.449Z,91.65
2022-09-02T21:56:02.405Z,91.79
2022-09-02T22:01:05.389Z,91.04
2022-09-02T22:06:08.322Z,91.05
2022-09-02T22:11:11.294Z,90.39
2022-09-02T22:16:16.351Z,90.24
2022-09-02T22:21:19.918Z,90.69
2022-09-02T22:26:22.760Z,92.04
2022-09-02T22:31:26.848Z,93.46
2022-09-02T22:36:29.990Z,94.21
2022-09-02T22:41:33.182Z,94.15
2022-09-02T22:46:53.514Z,94.46
2022-09-02T22:52:18.113Z,95.54
2022-09-02T22:57:20.912Z,94.95
2022-09-02T23:02:23.736Z,94.89
2022-09-02T23:07:26.680Z,92.33
2022-09-02T23:12:29.536Z,93.43
2022-09-02T23:17:34.624Z,93.27
2022-09-02T23:22:37.666Z,95.32
2022-09-02T23:27:44.302Z,94.64
2022-09-02T23:32:48.042Z,95.72
2022-09-02T23:37:50.855Z,96.99
2022-09-02T23:42:53.587Z,97.22
2022-09-02T23:47:56.468Z,97.72
2022-09-02T23:52:59.265Z,97.62
2022-09-02T23:58:01.953Z,97.94
